TimeCDT,TemperatureF,Dew PointF,Humidity,Sea Level PressureIn,VisibilityMPH,Wind Direction,Wind SpeedMPH,Gust SpeedMPH,PrecipitationIn,Events,Conditions,WindDirDegrees,DateUTC
12:15 AM,64.4,60.8,88,29.79,10.0,NE,5.8,-,N/A,,Clear,40,2013-06-28 05:15:00
12:35 AM,71.6,57.2,60,29.79,10.0,ENE,6.9,18.4,N/A,,Scattered Clouds,60,2013-06-28 05:35:00
12:55 AM,69.8,57.2,64,29.79,10.0,Calm,Calm,-,N/A,,Clear,0,2013-06-28 05:55:00
1:35 AM,64.4,59.0,83,29.79,10.0,Calm,Calm,-,N/A,,Clear,0,2013-06-28 06:35:00
1:55 AM,64.4,59.0,83,29.79,10.0,Calm,Calm,-,N/A,,Clear,0,2013-06-28 06:55:00
2:15 AM,62.6,59.0,88,29.79,10.0,NNW,3.5,-,N/A,,Clear,340,2013-06-28 07:15:00
2:35 AM,62.6,57.2,82,29.79,10.0,NW,3.5,-,N/A,,Clear,320,2013-06-28 07:35:00
2:55 AM,62.6,57.2,82,29.79,10.0,NNW,3.5,-,N/A,,Clear,340,2013-06-28 07:55:00
3:15 AM,62.6,57.2,82,29.79,10.0,Calm,Calm,-,N/A,,Clear,0,2013-06-28 08:15:00
3:35 AM,60.8,57.2,88,29.78,10.0,Calm,Calm,-,N/A,,Clear,0,2013-06-28 08:35:00
3:55 AM,60.8,59.0,94,29.78,10.0,Calm,Calm,-,N/A,,Clear,0,2013-06-28 08:55:00
4:15 AM,60.8,59.0,94,29.77,10.0,Calm,Calm,-,N/A,,Clear,0,2013-06-28 09:15:00
4:35 AM,60.8,59.0,94,29.77,10.0,Calm,Calm,-,N/A,,Clear,0,2013-06-28 09:35:00
4:55 AM,62.6,60.8,94,29.77,10.0,WNW,3.5,-,N/A,,Clear,300,2013-06-28 09:55:00
5:15 AM,62.6,60.8,94,29.77,10.0,WNW,4.6,-,N/A,,Clear,290,2013-06-28 10:15:00
5:35 AM,62.6,60.8,94,29.76,10.0,WNW,5.8,-,N/A,,Scattered Clouds,290,2013-06-28 10:35:00
5:55 AM,64.4,60.8,88,29.76,10.0,WNW,4.6,-,N/A,,Clear,290,2013-06-28 10:55:00
6:15 AM,64.4,60.8,88,29.76,10.0,WNW,6.9,-,N/A,,Clear,290,2013-06-28 11:15:00
6:35 AM,68.0,59.0,73,29.75,10.0,WNW,8.1,-,N/A,,Clear,290,2013-06-28 11:35:00
6:55 AM,69.8,59.0,68,29.75,10.0,WNW,9.2,-,N/A,,Clear,290,2013-06-28 11:55:00
7:15 AM,69.8,59.0,68,29.75,10.0,WNW,9.2,-,N/A,,Clear,290,2013-06-28 12:15:00
7:35 AM,71.6,59.0,64,29.75,10.0,WNW,11.5,-,N/A,,Clear,290,2013-06-28 12:35:00
7:55 AM,71.6,59.0,64,29.74,10.0,WNW,10.4,-,N/A,,Clear,290,2013-06-28 12:55:00
8:15 AM,73.4,59.0,61,29.75,10.0,NW,10.4,16.1,N/A,,Clear,310,2013-06-28 13:15:00
8:35 AM,71.6,57.2,60,29.75,10.0,NW,10.4,17.3,N/A,,Scattered Clouds,320,2013-06-28 13:35:00
8:55 AM,71.6,57.2,60,29.75,10.0,NW,13.8,20.7,N/A,,Mostly Cloudy,320,2013-06-28 13:55:00
9:15 AM,71.6,57.2,60,29.75,10.0,NW,12.7,20.7,N/A,,Mostly Cloudy,320,2013-06-28 14:15:00
9:35 AM,71.6,57.2,60,29.75,10.0,NNW,11.5,17.3,N/A,,Overcast,330,2013-06-28 14:35:00
9:55 AM,71.6,57.2,60,29.75,10.0,NW,12.7,23.0,N/A,,Mostly Cloudy,320,2013-06-28 14:55:00
10:15 AM,71.6,57.2,60,29.75,10.0,NW,11.5,18.4,N/A,,Mostly Cloudy,320,2013-06-28 15:15:00
10:35 AM,71.6,59.0,64,29.74,10.0,NW,13.8,20.7,N/A,,Mostly Cloudy,310,2013-06-28 15:35:00
10:55 AM,73.4,59.0,61,29.74,10.0,NW,8.1,19.6,N/A,,Mostly Cloudy,320,2013-06-28 15:55:00
11:15 AM,73.4,59.0,61,29.75,10.0,NW,12.7,20.7,N/A,,Scattered Clouds,320,2013-06-28 16:15:00
11:35 AM,73.4,59.0,61,29.75,10.0,NNW,13.8,21.9,N/A,,Scattered Clouds,330,2013-06-28 16:35:00
11:55 AM,73.4,60.8,65,29.76,10.0,NW,11.5,19.6,N/A,,Scattered Clouds,320,2013-06-28 16:55:00
12:14 PM,73.4,60.8,65,29.76,10.0,NW,12.7,19.6,N/A,,Mostly Cloudy,320,2013-06-28 17:14:00
12:35 PM,73.4,60.8,65,29.76,10.0,NW,16.1,20.7,N/A,,Mostly Cloudy,320,2013-06-28 17:35:00
12:55 PM,71.6,62.6,73,29.76,10.0,NNW,10.4,-,N/A,,Scattered Clouds,330,2013-06-28 17:55:00
1:14 PM,73.4,62.6,69,29.75,10.0,NW,11.5,19.6,N/A,,Scattered Clouds,320,2013-06-28 18:14:00
1:35 PM,75.2,62.6,65,29.74,10.0,NW,11.5,16.1,N/A,,Scattered Clouds,320,2013-06-28 18:35:00
1:55 PM,75.2,60.8,61,29.74,10.0,NW,13.8,20.7,N/A,,Scattered Clouds,310,2013-06-28 18:55:00
2:14 PM,69.8,64.4,83,29.75,10.0,NW,9.2,-,0.03,Rain,Light Rain,320,2013-06-28 19:14:00
2:35 PM,73.4,62.6,69,29.74,10.0,NW,12.7,24.2,0.03,,Scattered Clouds,320,2013-06-28 19:35:00
2:55 PM,73.4,62.6,69,29.74,10.0,NNW,10.4,18.4,0.03,,Mostly Cloudy,340,2013-06-28 19:55:00
3:14 PM,75.2,62.6,65,29.73,10.0,North,5.8,-,N/A,,Scattered Clouds,360,2013-06-28 20:14:00
3:35 PM,77.0,60.8,57,29.72,10.0,NNW,13.8,-,N/A,,Scattered Clouds,330,2013-06-28 20:35:00
3:55 PM,77.0,60.8,57,29.73,10.0,NW,17.3,23.0,N/A,,Scattered Clouds,310,2013-06-28 20:55:00
4:14 PM,78.8,60.8,54,29.73,10.0,NW,9.2,23.0,N/A,,Clear,310,2013-06-28 21:14:00
4:35 PM,77.0,60.8,57,29.73,10.0,NNW,11.5,23.0,N/A,,Mostly Cloudy,330,2013-06-28 21:35:00
4:55 PM,77.0,62.6,61,29.72,10.0,NNE,6.9,-,N/A,,Mostly Cloudy,20,2013-06-28 21:55:00
5:15 PM,71.6,62.6,73,29.74,2.5,NW,16.1,19.6,0.17,Rain,Heavy Rain,310,2013-06-28 22:15:00
5:35 PM,71.6,66.2,83,29.73,10.0,NW,4.6,-,0.20,,Mostly Cloudy,310,2013-06-28 22:35:00
5:55 PM,71.6,66.2,83,29.74,10.0,NNW,15.0,23.0,0.20,Rain,Light Rain,340,2013-06-28 22:55:00
6:15 PM,69.8,62.6,78,29.73,10.0,NNW,10.4,17.3,N/A,,Mostly Cloudy,340,2013-06-28 23:15:00
6:35 PM,69.8,62.6,78,29.73,10.0,NW,8.1,-,N/A,,Mostly Cloudy,320,2013-06-28 23:35:00
6:55 PM,71.6,62.6,73,29.74,10.0,NNW,6.9,18.4,N/A,,Scattered Clouds,330,2013-06-28 23:55:00
7:15 PM,71.6,62.6,73,29.74,10.0,NNW,9.2,16.1,N/A,,Scattered Clouds,330,2013-06-29 00:15:00
7:35 PM,69.8,62.6,78,29.74,10.0,WNW,5.8,-,N/A,,Scattered Clouds,300,2013-06-29 00:35:00
7:55 PM,71.6,62.6,73,29.74,10.0,NW,6.9,-,N/A,,Clear,320,2013-06-29 00:55:00
8:15 PM,71.6,62.6,73,29.75,10.0,NW,5.8,-,N/A,,Scattered Clouds,320,2013-06-29 01:15:00
8:35 PM,69.8,62.6,78,29.75,10.0,NW,9.2,-,N/A,,Scattered Clouds,320,2013-06-29 01:35:00
8:54 PM,69.8,62.6,78,29.75,10.0,NW,5.8,-,N/A,,Clear,320,2013-06-29 01:54:00
9:15 PM,69.8,62.6,78,29.76,10.0,NW,6.9,-,N/A,,Clear,320,2013-06-29 02:15:00
9:35 PM,69.8,62.6,78,29.76,10.0,NW,4.6,-,N/A,,Clear,310,2013-06-29 02:35:00
9:55 PM,68.0,62.6,83,29.76,10.0,NW,5.8,-,N/A,,Clear,310,2013-06-29 02:55:00
10:15 PM,66.2,62.6,88,29.76,10.0,NW,5.8,-,N/A,,Clear,320,2013-06-29 03:15:00
10:35 PM,66.2,62.6,88,29.76,10.0,NW,3.5,-,N/A,,Clear,320,2013-06-29 03:35:00
10:55 PM,66.2,62.6,88,29.76,10.0,NNW,5.8,-,N/A,,Clear,340,2013-06-29 03:55:00
11:15 PM,66.2,62.6,88,29.75,10.0,NNW,3.5,-,N/A,,Clear,340,2013-06-29 04:15:00
11:35 PM,66.2,62.6,88,29.75,10.0,NNW,4.6,-,N/A,,Clear,330,2013-06-29 04:35:00
11:55 PM,66.2,62.6,88,29.74,10.0,North,3.5,-,N/A,,Clear,350,2013-06-29 04:55:00